sensor_id;sensor_type;location;lat;lon;timestamp;P1;durP1;ratioP1;P2;durP2;ratioP2
1953;SDS011;977;42.704;23.354;2022-07-12T00:01:53;3.27;;;1.43;;
1953;SDS011;977;42.704;23.354;2022-07-12T00:04:18;1.67;;;1.57;;
1953;SDS011;977;42.704;23.354;2022-07-12T00:06:44;2.37;;;2.27;;
1953;SDS011;977;42.704;23.354;2022-07-12T00:09:12;1.70;;;1.60;;
1953;SDS011;977;42.704;23.354;2022-07-12T00:11:38;1.90;;;1.80;;
1953;SDS011;977;42.704;23.354;2022-07-12T00:14:04;1.73;;;1.63;;
1953;SDS011;977;42.704;23.354;2022-07-12T00:16:29;4.20;;;1.90;;
1953;SDS011;977;42.704;23.354;2022-07-12T00:18:55;1.70;;;1.60;;
1953;SDS011;977;42.704;23.354;2022-07-12T00:21:20;1.83;;;1.73;;
1953;SDS011;977;42.704;23.354;2022-07-12T00:23:46;1.70;;;1.60;;
1953;SDS011;977;42.704;23.354;2022-07-12T00:26:11;1.97;;;1.87;;
1953;SDS011;977;42.704;23.354;2022-07-12T00:28:37;1.80;;;1.70;;
1953;SDS011;977;42.704;23.354;2022-07-12T00:31:02;1.90;;;1.80;;
1953;SDS011;977;42.704;23.354;2022-07-12T00:33:28;2.00;;;1.90;;
1953;SDS011;977;42.704;23.354;2022-07-12T00:35:53;1.77;;;1.67;;
1953;SDS011;977;42.704;23.354;2022-07-12T00:38:19;4.63;;;2.50;;
1953;SDS011;977;42.704;23.354;2022-07-12T00:40:44;1.67;;;1.57;;
1953;SDS011;977;42.704;23.354;2022-07-12T00:43:10;2.17;;;2.07;;
1953;SDS011;977;42.704;23.354;2022-07-12T00:45:36;1.20;;;1.10;;
1953;SDS011;977;42.704;23.354;2022-07-12T00:48:03;1.83;;;1.73;;
1953;SDS011;977;42.704;23.354;2022-07-12T00:50:29;2.10;;;2.00;;
1953;SDS011;977;42.704;23.354;2022-07-12T00:52:55;2.10;;;2.00;;
1953;SDS011;977;42.704;23.354;2022-07-12T00:55:21;1.90;;;1.80;;
1953;SDS011;977;42.704;23.354;2022-07-12T00:57:49;2.57;;;2.30;;
1953;SDS011;977;42.704;23.354;2022-07-12T01:00:25;2.40;;;1.70;;
1953;SDS011;977;42.704;23.354;2022-07-12T01:02:53;1.60;;;1.50;;
1953;SDS011;977;42.704;23.354;2022-07-12T01:05:19;2.20;;;2.10;;
1953;SDS011;977;42.704;23.354;2022-07-12T01:07:45;1.90;;;1.80;;
1953;SDS011;977;42.704;23.354;2022-07-12T01:10:11;2.90;;;2.63;;
1953;SDS011;977;42.704;23.354;2022-07-12T01:12:37;2.40;;;2.20;;
1953;SDS011;977;42.704;23.354;2022-07-12T01:15:06;2.23;;;2.13;;
1953;SDS011;977;42.704;23.354;2022-07-12T01:17:33;2.00;;;1.90;;
1953;SDS011;977;42.704;23.354;2022-07-12T01:19:58;1.77;;;1.67;;
1953;SDS011;977;42.704;23.354;2022-07-12T01:22:26;2.10;;;2.00;;
1953;SDS011;977;42.704;23.354;2022-07-12T01:24:55;6.00;;;1.90;;
1953;SDS011;977;42.704;23.354;2022-07-12T01:27:21;2.20;;;2.10;;
1953;SDS011;977;42.704;23.354;2022-07-12T01:29:46;2.03;;;1.93;;
1953;SDS011;977;42.704;23.354;2022-07-12T01:32:12;2.03;;;1.93;;
1953;SDS011;977;42.704;23.354;2022-07-12T01:35:03;1.90;;;1.67;;
1953;SDS011;977;42.704;23.354;2022-07-12T01:37:32;4.03;;;2.73;;
1953;SDS011;977;42.704;23.354;2022-07-12T01:39:59;2.37;;;2.20;;
1953;SDS011;977;42.704;23.354;2022-07-12T01:42:26;2.30;;;2.20;;
1953;SDS011;977;42.704;23.354;2022-07-12T01:44:53;2.10;;;2.00;;
1953;SDS011;977;42.704;23.354;2022-07-12T01:47:23;2.50;;;2.30;;
1953;SDS011;977;42.704;23.354;2022-07-12T01:49:50;2.23;;;2.03;;
1953;SDS011;977;42.704;23.354;2022-07-12T01:52:16;2.33;;;2.23;;
1953;SDS011;977;42.704;23.354;2022-07-12T01:54:42;2.80;;;2.00;;
1953;SDS011;977;42.704;23.354;2022-07-12T01:57:08;2.17;;;2.07;;
1953;SDS011;977;42.704;23.354;2022-07-12T01:59:34;2.20;;;2.10;;
1953;SDS011;977;42.704;23.354;2022-07-12T02:02:01;1.77;;;1.60;;
1953;SDS011;977;42.704;23.354;2022-07-12T02:04:27;2.13;;;2.00;;
1953;SDS011;977;42.704;23.354;2022-07-12T02:06:53;2.43;;;2.33;;
1953;SDS011;977;42.704;23.354;2022-07-12T02:09:19;1.93;;;1.83;;
1953;SDS011;977;42.704;23.354;2022-07-12T02:11:45;1.77;;;1.67;;
1953;SDS011;977;42.704;23.354;2022-07-12T02:14:12;2.63;;;2.40;;
1953;SDS011;977;42.704;23.354;2022-07-12T02:16:38;2.00;;;1.90;;
1953;SDS011;977;42.704;23.354;2022-07-12T02:19:04;2.33;;;2.13;;
1953;SDS011;977;42.704;23.354;2022-07-12T02:21:30;2.03;;;1.93;;
1953;SDS011;977;42.704;23.354;2022-07-12T02:23:55;2.47;;;2.00;;
1953;SDS011;977;42.704;23.354;2022-07-12T02:26:21;2.13;;;2.03;;
1953;SDS011;977;42.704;23.354;2022-07-12T02:28:46;3.00;;;2.70;;
1953;SDS011;977;42.704;23.354;2022-07-12T02:31:12;2.50;;;2.40;;
1953;SDS011;977;42.704;23.354;2022-07-12T02:33:37;2.67;;;2.57;;
1953;SDS011;977;42.704;23.354;2022-07-12T02:36:03;2.30;;;2.10;;
1953;SDS011;977;42.704;23.354;2022-07-12T02:38:28;2.37;;;2.20;;
1953;SDS011;977;42.704;23.354;2022-07-12T02:40:54;4.50;;;2.97;;
1953;SDS011;977;42.704;23.354;2022-07-12T02:43:20;2.20;;;2.10;;
1953;SDS011;977;42.704;23.354;2022-07-12T02:45:46;3.63;;;3.13;;
1953;SDS011;977;42.704;23.354;2022-07-12T02:48:11;2.70;;;2.60;;
1953;SDS011;977;42.704;23.354;2022-07-12T02:50:37;6.03;;;3.17;;
1953;SDS011;977;42.704;23.354;2022-07-12T02:53:04;2.57;;;2.20;;
1953;SDS011;977;42.704;23.354;2022-07-12T02:55:30;2.57;;;2.37;;
1953;SDS011;977;42.704;23.354;2022-07-12T02:57:55;2.77;;;2.57;;
1953;SDS011;977;42.704;23.354;2022-07-12T03:00:20;2.17;;;2.07;;
1953;SDS011;977;42.704;23.354;2022-07-12T03:02:46;2.20;;;2.10;;
1953;SDS011;977;42.704;23.354;2022-07-12T03:05:12;3.13;;;2.60;;
1953;SDS011;977;42.704;23.354;2022-07-12T03:07:37;3.17;;;2.63;;
1953;SDS011;977;42.704;23.354;2022-07-12T03:10:03;1.80;;;1.70;;
1953;SDS011;977;42.704;23.354;2022-07-12T03:12:29;2.80;;;2.60;;
1953;SDS011;977;42.704;23.354;2022-07-12T03:14:54;4.70;;;4.30;;
1953;SDS011;977;42.704;23.354;2022-07-12T03:17:20;4.50;;;4.10;;
1953;SDS011;977;42.704;23.354;2022-07-12T03:19:46;3.07;;;2.90;;
1953;SDS011;977;42.704;23.354;2022-07-12T03:22:11;3.07;;;2.87;;
1953;SDS011;977;42.704;23.354;2022-07-12T03:24:37;2.30;;;2.10;;
1953;SDS011;977;42.704;23.354;2022-07-12T03:27:02;2.70;;;2.07;;
1953;SDS011;977;42.704;23.354;2022-07-12T03:29:28;3.20;;;2.90;;
1953;SDS011;977;42.704;23.354;2022-07-12T03:31:53;2.50;;;2.30;;
1953;SDS011;977;42.704;23.354;2022-07-12T03:34:19;2.00;;;1.90;;
1953;SDS011;977;42.704;23.354;2022-07-12T03:36:44;2.50;;;1.90;;
1953;SDS011;977;42.704;23.354;2022-07-12T03:39:10;2.10;;;2.00;;
1953;SDS011;977;42.704;23.354;2022-07-12T03:41:36;2.80;;;2.60;;
1953;SDS011;977;42.704;23.354;2022-07-12T03:44:01;1.83;;;1.73;;
1953;SDS011;977;42.704;23.354;2022-07-12T03:46:27;6.40;;;2.13;;
1953;SDS011;977;42.704;23.354;2022-07-12T03:48:52;2.30;;;2.13;;
1953;SDS011;977;42.704;23.354;2022-07-12T03:51:18;2.07;;;1.97;;
1953;SDS011;977;42.704;23.354;2022-07-12T03:53:43;3.00;;;2.10;;
1953;SDS011;977;42.704;23.354;2022-07-12T03:56:08;2.30;;;2.10;;
1953;SDS011;977;42.704;23.354;2022-07-12T03:58:34;2.43;;;2.23;;
1953;SDS011;977;42.704;23.354;2022-07-12T04:00:59;2.00;;;1.90;;
1953;SDS011;977;42.704;23.354;2022-07-12T04:03:25;2.03;;;1.80;;
1953;SDS011;977;42.704;23.354;2022-07-12T04:05:50;1.90;;;1.80;;
1953;SDS011;977;42.704;23.354;2022-07-12T04:08:15;2.43;;;2.00;;
1953;SDS011;977;42.704;23.354;2022-07-12T04:10:41;2.60;;;2.40;;
1953;SDS011;977;42.704;23.354;2022-07-12T04:13:07;1.80;;;1.70;;
1953;SDS011;977;42.704;23.354;2022-07-12T04:15:32;2.50;;;2.30;;
1953;SDS011;977;42.704;23.354;2022-07-12T04:17:57;1.80;;;1.70;;
1953;SDS011;977;42.704;23.354;2022-07-12T04:20:23;2.77;;;2.30;;
1953;SDS011;977;42.704;23.354;2022-07-12T04:22:48;2.00;;;1.87;;
1953;SDS011;977;42.704;23.354;2022-07-12T04:25:14;2.17;;;2.07;;
1953;SDS011;977;42.704;23.354;2022-07-12T04:27:39;2.03;;;1.93;;
1953;SDS011;977;42.704;23.354;2022-07-12T04:30:05;2.10;;;2.00;;
1953;SDS011;977;42.704;23.354;2022-07-12T04:32:31;2.30;;;2.10;;
1953;SDS011;977;42.704;23.354;2022-07-12T04:34:56;2.93;;;2.47;;
1953;SDS011;977;42.704;23.354;2022-07-12T04:37:22;2.70;;;2.50;;
1953;SDS011;977;42.704;23.354;2022-07-12T04:39:47;2.47;;;2.37;;
1953;SDS011;977;42.704;23.354;2022-07-12T04:42:13;2.87;;;2.67;;
1953;SDS011;977;42.704;23.354;2022-07-12T04:44:38;2.97;;;2.40;;
1953;SDS011;977;42.704;23.354;2022-07-12T04:47:04;3.00;;;2.57;;
1953;SDS011;977;42.704;23.354;2022-07-12T04:49:31;3.07;;;2.87;;
1953;SDS011;977;42.704;23.354;2022-07-12T04:51:57;4.63;;;4.23;;
1953;SDS011;977;42.704;23.354;2022-07-12T04:54:23;2.83;;;2.63;;
1953;SDS011;977;42.704;23.354;2022-07-12T04:56:48;13.07;;;3.30;;
1953;SDS011;977;42.704;23.354;2022-07-12T04:59:14;3.60;;;3.40;;
1953;SDS011;977;42.704;23.354;2022-07-12T05:01:39;3.80;;;3.60;;
1953;SDS011;977;42.704;23.354;2022-07-12T05:04:05;3.00;;;2.80;;
1953;SDS011;977;42.704;23.354;2022-07-12T05:06:30;3.07;;;2.77;;
1953;SDS011;977;42.704;23.354;2022-07-12T05:08:56;3.40;;;3.10;;
1953;SDS011;977;42.704;23.354;2022-07-12T05:11:21;3.70;;;3.40;;
1953;SDS011;977;42.704;23.354;2022-07-12T05:13:47;3.23;;;3.03;;
1953;SDS011;977;42.704;23.354;2022-07-12T05:16:13;6.37;;;2.87;;
1953;SDS011;977;42.704;23.354;2022-07-12T05:18:39;2.90;;;2.70;;
1953;SDS011;977;42.704;23.354;2022-07-12T05:21:04;2.40;;;2.30;;
1953;SDS011;977;42.704;23.354;2022-07-12T05:23:30;3.03;;;2.40;;
1953;SDS011;977;42.704;23.354;2022-07-12T05:25:56;2.90;;;2.53;;
1953;SDS011;977;42.704;23.354;2022-07-12T05:28:21;3.00;;;2.70;;
1953;SDS011;977;42.704;23.354;2022-07-12T05:30:47;2.53;;;2.43;;
1953;SDS011;977;42.704;23.354;2022-07-12T05:33:12;7.70;;;3.00;;
1953;SDS011;977;42.704;23.354;2022-07-12T05:35:38;2.40;;;2.23;;
1953;SDS011;977;42.704;23.354;2022-07-12T05:38:06;2.50;;;1.90;;
1953;SDS011;977;42.704;23.354;2022-07-12T05:40:34;5.50;;;3.00;;
1953;SDS011;977;42.704;23.354;2022-07-12T05:42:59;6.73;;;3.17;;
1953;SDS011;977;42.704;23.354;2022-07-12T05:45:25;2.53;;;2.37;;
1953;SDS011;977;42.704;23.354;2022-07-12T05:47:53;2.40;;;2.00;;
1953;SDS011;977;42.704;23.354;2022-07-12T05:50:19;3.33;;;2.00;;
1953;SDS011;977;42.704;23.354;2022-07-12T05:52:44;2.83;;;2.53;;
1953;SDS011;977;42.704;23.354;2022-07-12T05:55:28;2.80;;;2.60;;
1953;SDS011;977;42.704;23.354;2022-07-12T05:57:54;4.37;;;3.60;;
1953;SDS011;977;42.704;23.354;2022-07-12T06:00:19;3.70;;;2.60;;
1953;SDS011;977;42.704;23.354;2022-07-12T06:02:45;3.67;;;2.37;;
1953;SDS011;977;42.704;23.354;2022-07-12T06:05:10;3.80;;;3.47;;
1953;SDS011;977;42.704;23.354;2022-07-12T06:07:36;8.43;;;4.13;;
1953;SDS011;977;42.704;23.354;2022-07-12T06:10:02;4.20;;;2.50;;
1953;SDS011;977;42.704;23.354;2022-07-12T06:12:28;7.17;;;3.17;;
1953;SDS011;977;42.704;23.354;2022-07-12T06:14:54;3.67;;;2.60;;
1953;SDS011;977;42.704;23.354;2022-07-12T06:17:19;2.60;;;2.40;;
1953;SDS011;977;42.704;23.354;2022-07-12T06:19:47;1.90;;;1.80;;
1953;SDS011;977;42.704;23.354;2022-07-12T06:22:13;2.03;;;1.50;;
1953;SDS011;977;42.704;23.354;2022-07-12T06:24:38;4.53;;;2.67;;
1953;SDS011;977;42.704;23.354;2022-07-12T06:27:04;8.23;;;3.00;;
1953;SDS011;977;42.704;23.354;2022-07-12T06:29:30;1.93;;;1.50;;
1953;SDS011;977;42.704;23.354;2022-07-12T06:31:58;1.70;;;1.60;;
1953;SDS011;977;42.704;23.354;2022-07-12T06:34:24;2.17;;;1.83;;
1953;SDS011;977;42.704;23.354;2022-07-12T06:36:49;1.80;;;1.70;;
1953;SDS011;977;42.704;23.354;2022-07-12T06:39:14;1.67;;;1.57;;
1953;SDS011;977;42.704;23.354;2022-07-12T06:41:40;1.93;;;1.80;;
1953;SDS011;977;42.704;23.354;2022-07-12T06:44:11;2.83;;;1.53;;
1953;SDS011;977;42.704;23.354;2022-07-12T06:46:37;6.23;;;1.87;;
1953;SDS011;977;42.704;23.354;2022-07-12T06:49:02;2.07;;;1.87;;
1953;SDS011;977;42.704;23.354;2022-07-12T06:51:27;2.83;;;1.57;;
1953;SDS011;977;42.704;23.354;2022-07-12T06:53:55;2.53;;;2.20;;
1953;SDS011;977;42.704;23.354;2022-07-12T06:56:21;2.03;;;1.63;;
1953;SDS011;977;42.704;23.354;2022-07-12T06:58:46;2.23;;;1.60;;
1953;SDS011;977;42.704;23.354;2022-07-12T07:01:12;1.53;;;1.30;;
1953;SDS011;977;42.704;23.354;2022-07-12T07:03:37;1.73;;;1.43;;
1953;SDS011;977;42.704;23.354;2022-07-12T07:06:03;6.20;;;1.63;;
1953;SDS011;977;42.704;23.354;2022-07-12T07:08:28;1.30;;;1.20;;
1953;SDS011;977;42.704;23.354;2022-07-12T07:10:56;1.20;;;0.90;;
1953;SDS011;977;42.704;23.354;2022-07-12T07:13:21;2.30;;;1.37;;
1953;SDS011;977;42.704;23.354;2022-07-12T07:15:47;2.07;;;1.80;;
1953;SDS011;977;42.704;23.354;2022-07-12T07:18:15;2.20;;;1.67;;
1953;SDS011;977;42.704;23.354;2022-07-12T07:20:41;1.93;;;1.20;;
1953;SDS011;977;42.704;23.354;2022-07-12T07:23:11;3.83;;;1.10;;
1953;SDS011;977;42.704;23.354;2022-07-12T07:25:41;1.10;;;1.00;;
1953;SDS011;977;42.704;23.354;2022-07-12T07:28:08;1.83;;;1.20;;
1953;SDS011;977;42.704;23.354;2022-07-12T07:30:33;1.43;;;1.00;;
1953;SDS011;977;42.704;23.354;2022-07-12T07:33:18;4.83;;;1.30;;
1953;SDS011;977;42.704;23.354;2022-07-12T07:35:53;1.13;;;1.03;;
1953;SDS011;977;42.704;23.354;2022-07-12T07:38:18;1.53;;;1.10;;
1953;SDS011;977;42.704;23.354;2022-07-12T07:40:44;2.50;;;1.10;;
1953;SDS011;977;42.704;23.354;2022-07-12T07:43:10;1.40;;;1.30;;
1953;SDS011;977;42.704;23.354;2022-07-12T07:45:45;1.90;;;1.17;;
1953;SDS011;977;42.704;23.354;2022-07-12T07:48:22;3.10;;;1.10;;
1953;SDS011;977;42.704;23.354;2022-07-12T07:50:48;1.10;;;1.00;;
1953;SDS011;977;42.704;23.354;2022-07-12T07:53:16;1.87;;;1.10;;
1953;SDS011;977;42.704;23.354;2022-07-12T07:55:41;1.63;;;1.20;;
1953;SDS011;977;42.704;23.354;2022-07-12T07:58:07;7.03;;;1.20;;
1953;SDS011;977;42.704;23.354;2022-07-12T08:00:32;3.43;;;1.23;;
1953;SDS011;977;42.704;23.354;2022-07-12T08:02:58;2.50;;;1.10;;
1953;SDS011;977;42.704;23.354;2022-07-12T08:05:23;3.80;;;1.30;;
1953;SDS011;977;42.704;23.354;2022-07-12T08:07:49;1.53;;;0.97;;
1953;SDS011;977;42.704;23.354;2022-07-12T08:10:15;0.90;;;0.90;;
1953;SDS011;977;42.704;23.354;2022-07-12T08:12:41;1.37;;;0.90;;
1953;SDS011;977;42.704;23.354;2022-07-12T08:15:10;1.30;;;1.13;;
1953;SDS011;977;42.704;23.354;2022-07-12T08:17:41;1.20;;;1.10;;
1953;SDS011;977;42.704;23.354;2022-07-12T08:20:06;1.00;;;0.80;;
1953;SDS011;977;42.704;23.354;2022-07-12T08:22:32;1.10;;;1.00;;
1953;SDS011;977;42.704;23.354;2022-07-12T08:25:01;1.20;;;1.10;;
1953;SDS011;977;42.704;23.354;2022-07-12T08:27:27;7.53;;;1.10;;
1953;SDS011;977;42.704;23.354;2022-07-12T08:29:52;3.70;;;0.90;;
1953;SDS011;977;42.704;23.354;2022-07-12T08:32:17;0.90;;;0.90;;
1953;SDS011;977;42.704;23.354;2022-07-12T08:34:43;0.80;;;0.80;;
1953;SDS011;977;42.704;23.354;2022-07-12T08:37:08;3.37;;;0.93;;
1953;SDS011;977;42.704;23.354;2022-07-12T08:39:34;1.00;;;0.90;;
1953;SDS011;977;42.704;23.354;2022-07-12T08:42:22;0.80;;;0.80;;
1953;SDS011;977;42.704;23.354;2022-07-12T08:44:54;1.63;;;1.17;;
1953;SDS011;977;42.704;23.354;2022-07-12T08:47:20;0.90;;;0.80;;
1953;SDS011;977;42.704;23.354;2022-07-12T08:52:53;2.30;;;1.33;;
1953;SDS011;977;42.704;23.354;2022-07-12T08:57:48;0.80;;;0.80;;
1953;SDS011;977;42.704;23.354;2022-07-12T09:00:15;1.20;;;0.80;;
1953;SDS011;977;42.704;23.354;2022-07-12T09:02:48;0.90;;;0.77;;
1953;SDS011;977;42.704;23.354;2022-07-12T09:05:14;4.13;;;1.20;;
1953;SDS011;977;42.704;23.354;2022-07-12T09:07:41;2.00;;;1.17;;
1953;SDS011;977;42.704;23.354;2022-07-12T09:10:07;1.40;;;1.20;;
1953;SDS011;977;42.704;23.354;2022-07-12T09:12:34;1.30;;;1.20;;
1953;SDS011;977;42.704;23.354;2022-07-12T09:15:11;1.47;;;1.20;;
1953;SDS011;977;42.704;23.354;2022-07-12T09:18:03;1.33;;;0.87;;
1953;SDS011;977;42.704;23.354;2022-07-12T09:20:38;1.20;;;0.93;;
1953;SDS011;977;42.704;23.354;2022-07-12T09:23:05;3.00;;;1.20;;
1953;SDS011;977;42.704;23.354;2022-07-12T09:25:33;2.03;;;1.10;;
1953;SDS011;977;42.704;23.354;2022-07-12T09:28:00;1.30;;;1.07;;
1953;SDS011;977;42.704;23.354;2022-07-12T09:30:29;0.90;;;0.90;;
1953;SDS011;977;42.704;23.354;2022-07-12T09:32:58;1.33;;;1.00;;
1953;SDS011;977;42.704;23.354;2022-07-12T09:38:36;0.90;;;0.90;;
1953;SDS011;977;42.704;23.354;2022-07-12T09:41:03;3.13;;;1.10;;
1953;SDS011;977;42.704;23.354;2022-07-12T09:43:30;1.97;;;1.47;;
1953;SDS011;977;42.704;23.354;2022-07-12T09:45:56;1.57;;;0.90;;
1953;SDS011;977;42.704;23.354;2022-07-12T09:48:21;2.10;;;1.70;;
1953;SDS011;977;42.704;23.354;2022-07-12T09:50:49;0.80;;;0.77;;
1953;SDS011;977;42.704;23.354;2022-07-12T09:54:01;2.27;;;1.10;;
1953;SDS011;977;42.704;23.354;2022-07-12T09:56:07;2.30;;;1.10;;
1953;SDS011;977;42.704;23.354;2022-07-12T09:58:39;2.30;;;1.20;;
1953;SDS011;977;42.704;23.354;2022-07-12T10:01:08;3.00;;;1.07;;
1953;SDS011;977;42.704;23.354;2022-07-12T10:03:35;0.90;;;0.70;;
1953;SDS011;977;42.704;23.354;2022-07-12T10:06:05;0.93;;;0.70;;
1953;SDS011;977;42.704;23.354;2022-07-12T10:08:32;1.10;;;0.70;;
1953;SDS011;977;42.704;23.354;2022-07-12T10:10:58;0.97;;;0.80;;
1953;SDS011;977;42.704;23.354;2022-07-12T10:13:26;2.23;;;1.27;;
1953;SDS011;977;42.704;23.354;2022-07-12T10:15:57;0.97;;;0.90;;
1953;SDS011;977;42.704;23.354;2022-07-12T10:18:25;0.80;;;0.80;;
1953;SDS011;977;42.704;23.354;2022-07-12T10:20:50;1.20;;;0.80;;
1953;SDS011;977;42.704;23.354;2022-07-12T10:25:44;3.93;;;0.90;;
1953;SDS011;977;42.704;23.354;2022-07-12T10:28:10;2.20;;;0.93;;
1953;SDS011;977;42.704;23.354;2022-07-12T10:30:44;0.80;;;0.80;;
1953;SDS011;977;42.704;23.354;2022-07-12T10:33:23;0.90;;;0.77;;
1953;SDS011;977;42.704;23.354;2022-07-12T10:36:02;1.13;;;0.90;;
1953;SDS011;977;42.704;23.354;2022-07-12T10:38:31;7.33;;;1.00;;
1953;SDS011;977;42.704;23.354;2022-07-12T10:40:57;1.17;;;1.07;;
1953;SDS011;977;42.704;23.354;2022-07-12T10:43:43;1.17;;;0.87;;
1953;SDS011;977;42.704;23.354;2022-07-12T10:46:27;1.40;;;0.90;;
1953;SDS011;977;42.704;23.354;2022-07-12T10:49:24;0.70;;;0.67;;
1953;SDS011;977;42.704;23.354;2022-07-12T11:00:09;1.97;;;1.00;;
1953;SDS011;977;42.704;23.354;2022-07-12T11:02:36;3.03;;;0.77;;
1953;SDS011;977;42.704;23.354;2022-07-12T11:05:02;0.90;;;0.90;;
1953;SDS011;977;42.704;23.354;2022-07-12T11:07:28;0.73;;;0.70;;
1953;SDS011;977;42.704;23.354;2022-07-12T11:09:55;20.13;;;1.10;;
1953;SDS011;977;42.704;23.354;2022-07-12T11:12:21;1.10;;;0.90;;
1953;SDS011;977;42.704;23.354;2022-07-12T11:14:57;1.03;;;0.93;;
1953;SDS011;977;42.704;23.354;2022-07-12T11:17:27;0.90;;;0.80;;
1953;SDS011;977;42.704;23.354;2022-07-12T11:20:05;1.10;;;1.00;;
1953;SDS011;977;42.704;23.354;2022-07-12T11:22:36;0.93;;;0.90;;
1953;SDS011;977;42.704;23.354;2022-07-12T11:25:03;2.03;;;1.10;;
1953;SDS011;977;42.704;23.354;2022-07-12T11:27:30;1.10;;;1.00;;
1953;SDS011;977;42.704;23.354;2022-07-12T11:29:59;1.10;;;1.00;;
1953;SDS011;977;42.704;23.354;2022-07-12T11:32:35;1.00;;;0.80;;
1953;SDS011;977;42.704;23.354;2022-07-12T11:35:03;1.07;;;0.97;;
1953;SDS011;977;42.704;23.354;2022-07-12T11:37:29;12.53;;;1.10;;
1953;SDS011;977;42.704;23.354;2022-07-12T11:39:55;1.77;;;1.10;;
1953;SDS011;977;42.704;23.354;2022-07-12T11:42:21;1.00;;;0.90;;
1953;SDS011;977;42.704;23.354;2022-07-12T11:44:52;0.73;;;0.73;;
1953;SDS011;977;42.704;23.354;2022-07-12T11:47:19;1.20;;;0.97;;
1953;SDS011;977;42.704;23.354;2022-07-12T11:49:52;1.23;;;1.13;;
1953;SDS011;977;42.704;23.354;2022-07-12T11:52:20;1.30;;;1.10;;
1953;SDS011;977;42.704;23.354;2022-07-12T11:54:48;0.70;;;0.70;;
1953;SDS011;977;42.704;23.354;2022-07-12T11:57:21;1.20;;;1.00;;
1953;SDS011;977;42.704;23.354;2022-07-12T11:59:51;0.90;;;0.90;;
1953;SDS011;977;42.704;23.354;2022-07-12T12:02:16;1.20;;;0.70;;
1953;SDS011;977;42.704;23.354;2022-07-12T12:04:55;3.90;;;0.80;;
1953;SDS011;977;42.704;23.354;2022-07-12T12:07:21;0.73;;;0.73;;
1953;SDS011;977;42.704;23.354;2022-07-12T12:12:43;1.00;;;0.83;;
1953;SDS011;977;42.704;23.354;2022-07-12T12:15:12;0.80;;;0.73;;
1953;SDS011;977;42.704;23.354;2022-07-12T12:17:46;2.33;;;0.80;;
1953;SDS011;977;42.704;23.354;2022-07-12T12:20:33;1.10;;;0.90;;
1953;SDS011;977;42.704;23.354;2022-07-12T12:23:04;4.30;;;0.90;;
1953;SDS011;977;42.704;23.354;2022-07-12T12:25:31;1.10;;;1.00;;
1953;SDS011;977;42.704;23.354;2022-07-12T12:28:04;1.23;;;0.73;;
1953;SDS011;977;42.704;23.354;2022-07-12T12:30:30;0.87;;;0.87;;
1953;SDS011;977;42.704;23.354;2022-07-12T12:33:00;2.40;;;1.17;;
1953;SDS011;977;42.704;23.354;2022-07-12T12:38:10;1.33;;;0.80;;
1953;SDS011;977;42.704;23.354;2022-07-12T12:40:37;0.97;;;0.90;;
1953;SDS011;977;42.704;23.354;2022-07-12T12:43:06;0.80;;;0.80;;
1953;SDS011;977;42.704;23.354;2022-07-12T12:45:35;1.80;;;0.97;;
1953;SDS011;977;42.704;23.354;2022-07-12T12:48:04;1.37;;;0.90;;
1953;SDS011;977;42.704;23.354;2022-07-12T12:50:40;1.10;;;1.00;;
1953;SDS011;977;42.704;23.354;2022-07-12T12:53:14;0.90;;;0.80;;
1953;SDS011;977;42.704;23.354;2022-07-12T12:55:46;1.67;;;1.10;;
1953;SDS011;977;42.704;23.354;2022-07-12T12:58:14;2.20;;;0.80;;
1953;SDS011;977;42.704;23.354;2022-07-12T13:00:41;1.43;;;1.30;;
1953;SDS011;977;42.704;23.354;2022-07-12T13:03:10;1.07;;;1.03;;
1953;SDS011;977;42.704;23.354;2022-07-12T13:05:38;1.30;;;0.90;;
1953;SDS011;977;42.704;23.354;2022-07-12T13:08:05;0.87;;;0.80;;
1953;SDS011;977;42.704;23.354;2022-07-12T13:10:32;1.20;;;1.00;;
1953;SDS011;977;42.704;23.354;2022-07-12T13:12:58;1.53;;;1.00;;
1953;SDS011;977;42.704;23.354;2022-07-12T13:15:25;3.17;;;1.10;;
1953;SDS011;977;42.704;23.354;2022-07-12T13:17:52;2.80;;;1.87;;
1953;SDS011;977;42.704;23.354;2022-07-12T13:20:18;0.80;;;0.70;;
1953;SDS011;977;42.704;23.354;2022-07-12T13:22:43;1.20;;;1.10;;
1953;SDS011;977;42.704;23.354;2022-07-12T13:25:12;1.33;;;1.07;;
1953;SDS011;977;42.704;23.354;2022-07-12T13:27:39;1.63;;;0.90;;
1953;SDS011;977;42.704;23.354;2022-07-12T13:30:07;0.80;;;0.80;;
1953;SDS011;977;42.704;23.354;2022-07-12T13:32:34;2.10;;;1.20;;
1953;SDS011;977;42.704;23.354;2022-07-12T13:35:00;1.20;;;1.10;;
1953;SDS011;977;42.704;23.354;2022-07-12T13:37:27;0.93;;;0.83;;
1953;SDS011;977;42.704;23.354;2022-07-12T13:39:53;2.30;;;1.00;;
1953;SDS011;977;42.704;23.354;2022-07-12T13:42:40;0.77;;;0.77;;
1953;SDS011;977;42.704;23.354;2022-07-12T13:45:08;1.17;;;0.80;;
1953;SDS011;977;42.704;23.354;2022-07-12T13:47:35;1.17;;;1.07;;
1953;SDS011;977;42.704;23.354;2022-07-12T13:50:01;1.10;;;0.90;;
1953;SDS011;977;42.704;23.354;2022-07-12T13:52:28;1.97;;;0.97;;
1953;SDS011;977;42.704;23.354;2022-07-12T13:54:53;0.83;;;0.83;;
1953;SDS011;977;42.704;23.354;2022-07-12T13:57:19;0.90;;;0.90;;
1953;SDS011;977;42.704;23.354;2022-07-12T13:59:45;0.90;;;0.90;;
1953;SDS011;977;42.704;23.354;2022-07-12T14:02:10;1.10;;;1.00;;
1953;SDS011;977;42.704;23.354;2022-07-12T14:04:37;1.13;;;0.93;;
1953;SDS011;977;42.704;23.354;2022-07-12T14:07:03;2.30;;;1.10;;
1953;SDS011;977;42.704;23.354;2022-07-12T14:09:33;3.07;;;1.20;;
1953;SDS011;977;42.704;23.354;2022-07-12T14:11:58;2.30;;;1.20;;
1953;SDS011;977;42.704;23.354;2022-07-12T14:14:26;1.23;;;0.90;;
1953;SDS011;977;42.704;23.354;2022-07-12T14:17:11;1.90;;;1.40;;
1953;SDS011;977;42.704;23.354;2022-07-12T14:19:37;1.00;;;0.77;;
1953;SDS011;977;42.704;23.354;2022-07-12T14:22:02;1.03;;;0.93;;
1953;SDS011;977;42.704;23.354;2022-07-12T14:24:28;1.20;;;1.10;;
1953;SDS011;977;42.704;23.354;2022-07-12T14:26:53;0.80;;;0.80;;
1953;SDS011;977;42.704;23.354;2022-07-12T14:29:19;1.57;;;0.80;;
1953;SDS011;977;42.704;23.354;2022-07-12T14:31:44;1.50;;;1.20;;
1953;SDS011;977;42.704;23.354;2022-07-12T14:34:10;0.80;;;0.80;;
1953;SDS011;977;42.704;23.354;2022-07-12T14:36:35;0.97;;;0.87;;
1953;SDS011;977;42.704;23.354;2022-07-12T14:39:01;1.83;;;0.80;;
1953;SDS011;977;42.704;23.354;2022-07-12T14:41:26;2.93;;;1.13;;
1953;SDS011;977;42.704;23.354;2022-07-12T14:43:52;2.90;;;1.27;;
1953;SDS011;977;42.704;23.354;2022-07-12T14:46:18;1.00;;;0.90;;
1953;SDS011;977;42.704;23.354;2022-07-12T14:48:44;1.03;;;0.93;;
1953;SDS011;977;42.704;23.354;2022-07-12T14:51:09;2.83;;;1.20;;
1953;SDS011;977;42.704;23.354;2022-07-12T14:53:35;1.00;;;0.90;;
1953;SDS011;977;42.704;23.354;2022-07-12T14:56:01;3.23;;;0.90;;
1953;SDS011;977;42.704;23.354;2022-07-12T14:58:26;1.30;;;0.93;;
1953;SDS011;977;42.704;23.354;2022-07-12T15:00:55;1.00;;;0.90;;
1953;SDS011;977;42.704;23.354;2022-07-12T15:03:21;1.33;;;1.00;;
1953;SDS011;977;42.704;23.354;2022-07-12T15:05:46;1.17;;;1.00;;
1953;SDS011;977;42.704;23.354;2022-07-12T15:08:12;1.13;;;1.03;;
1953;SDS011;977;42.704;23.354;2022-07-12T15:10:37;0.93;;;0.90;;
1953;SDS011;977;42.704;23.354;2022-07-12T15:13:03;0.90;;;0.80;;
1953;SDS011;977;42.704;23.354;2022-07-12T15:15:28;3.30;;;1.20;;
1953;SDS011;977;42.704;23.354;2022-07-12T15:17:54;1.17;;;1.07;;
1953;SDS011;977;42.704;23.354;2022-07-12T15:20:19;0.70;;;0.70;;
1953;SDS011;977;42.704;23.354;2022-07-12T15:22:45;1.00;;;1.00;;
1953;SDS011;977;42.704;23.354;2022-07-12T15:25:10;1.93;;;1.20;;
1953;SDS011;977;42.704;23.354;2022-07-12T15:27:36;1.30;;;0.97;;
1953;SDS011;977;42.704;23.354;2022-07-12T15:30:02;3.00;;;1.00;;
1953;SDS011;977;42.704;23.354;2022-07-12T15:32:28;1.87;;;1.10;;
1953;SDS011;977;42.704;23.354;2022-07-12T15:34:54;1.40;;;1.30;;
1953;SDS011;977;42.704;23.354;2022-07-12T15:37:19;1.10;;;1.00;;
1953;SDS011;977;42.704;23.354;2022-07-12T15:39:45;2.60;;;2.40;;
1953;SDS011;977;42.704;23.354;2022-07-12T15:42:10;3.90;;;1.20;;